Accueil
METAR-TAF:

METAR-TAF

Aéroports :

Aéroport Le Mans-Arnage

Le Mans, France

latitude: 47-56N, longitude: 000-12E, altitude: 59 m

Observation

Le bulletin a été fait il y a 25 minutes, à 02:00 UTC
Vent calme
Température 15°C
Humidité 82%
Pression 1024 hPa
Visibilité 10 km ou plus
pas de nuages en-dessous de 1500 mètres et pas de cumulonimbus.

METAR: LFRM 190200Z AUTO 00000KT CAVOK 15/12 Q1024

Heure: 04:25 (02:25 UTC)

Prévision

Le bulletin a été fait il y a 9 heures et 25 minutes, à 17:00 UTC
Prévision valable du 18 à 18 UTC au 19 à 18 UTC
Vent 4 kt de direction variable
Visibilité 10 km ou plus
pas de nuages en-dessous de 1500 mètres et pas de cumulonimbus.

TAF: LFRM 181700Z 1818/1918 VRB04KT CAVOK

Observations et prévisions météorologiques de plus de 4000 aéroports (messages METAR et TAF).

Les stations disponibles sont représentées par des disques jaunes et rouges sur la carte.

Passer la souris dessus pour voir le nom de la station.

Cliquer dessus pour voir les observations et prévisions météorologiques.

Pour changer de carte: cliquez sur les boutons verts avec une croix noire pour zoomer, sur le bouton vert avec un tiret pour effectuer un zoom arrière, ou sur les flèches vertes pour les cartes adjacentes.


METAR-TAF: